createdAt,value
2022-11-10T00:01:19.634Z,145.93
2022-11-10T00:03:49.312Z,148.35
2022-11-10T00:06:16.258Z,152.43
2022-11-10T00:08:43.089Z,153.65
2022-11-10T00:11:09.944Z,151.20
2022-11-10T00:14:01.035Z,158.63
2022-11-10T00:16:46.405Z,157.40
2022-11-10T00:19:13.584Z,160.30
2022-11-10T00:21:40.481Z,166.27
2022-11-10T00:24:07.488Z,167.30
2022-11-10T00:26:34.417Z,168.50
2022-11-10T00:29:01.165Z,161.25
2022-11-10T00:31:28.601Z,158.18
2022-11-10T00:33:56.054Z,151.27
2022-11-10T00:36:23.609Z,161.38
2022-11-10T00:38:51.744Z,170.63
2022-11-10T00:41:18.621Z,183.15
2022-11-10T00:43:45.477Z,191.80
2022-11-10T00:46:12.588Z,182.30
2022-11-10T00:48:39.473Z,181.35
2022-11-10T00:51:06.557Z,179.65
2022-11-10T00:53:34.059Z,179.88
2022-11-10T00:56:00.860Z,167.75
2022-11-10T00:58:27.625Z,171.65
2022-11-10T01:01:02.379Z,168.60
2022-11-10T01:03:29.392Z,165.55
2022-11-10T01:05:56.170Z,164.57
2022-11-10T01:08:23.749Z,171.73
2022-11-10T01:10:50.727Z,171.88
2022-11-10T01:13:17.491Z,181.88
2022-11-10T01:15:44.334Z,176.48
2022-11-10T01:18:11.140Z,155.25
2022-11-10T01:20:38.050Z,158.85
2022-11-10T01:23:05.040Z,163.43
2022-11-10T01:25:31.852Z,158.07
2022-11-10T01:27:58.807Z,142.27
2022-11-10T01:30:25.551Z,140.60
2022-11-10T01:32:52.265Z,130.93
2022-11-10T01:35:18.997Z,125.60
2022-11-10T01:37:45.758Z,122.43
2022-11-10T01:40:13.021Z,130.52
2022-11-10T01:42:52.049Z,123.30
2022-11-10T01:45:25.065Z,134.68
2022-11-10T01:47:58.112Z,135.75
2022-11-10T01:50:29.578Z,145.25
2022-11-10T01:52:59.690Z,150.75
2022-11-10T01:55:27.001Z,152.23
2022-11-10T01:57:54.570Z,148.27
2022-11-10T02:00:22.451Z,142.23
2022-11-10T02:03:03.749Z,143.30
2022-11-10T02:05:31.524Z,140.37
2022-11-10T02:07:58.595Z,137.48
2022-11-10T02:10:25.357Z,132.90
2022-11-10T02:12:52.358Z,128.48
2022-11-10T02:15:19.502Z,133.48
2022-11-10T02:17:47.896Z,128.52
2022-11-10T02:20:18.569Z,126.40
2022-11-10T02:22:45.874Z,134.98
2022-11-10T02:25:20.145Z,119.68
2022-11-10T02:27:47.027Z,122.90
2022-11-10T02:30:15.165Z,119.60
2022-11-10T02:32:42.141Z,120.57
2022-11-10T02:35:09.633Z,122.13
2022-11-10T02:37:36.546Z,136.95
2022-11-10T02:40:04.108Z,126.10
2022-11-10T02:42:30.897Z,133.88
2022-11-10T02:44:58.203Z,134.60
2022-11-10T02:47:24.977Z,126.25
2022-11-10T02:49:51.989Z,125.45
2022-11-10T02:52:19.792Z,132.02
2022-11-10T02:54:46.657Z,142.52
2022-11-10T02:57:13.456Z,146.60
2022-11-10T02:59:40.281Z,149.95
2022-11-10T03:02:07.050Z,149.02
2022-11-10T03:04:33.803Z,150.25
2022-11-10T03:07:00.631Z,148.27
2022-11-10T03:09:27.407Z,151.57
2022-11-10T03:11:54.192Z,161.77
2022-11-10T03:14:20.945Z,150.65
2022-11-10T03:16:47.917Z,150.00
2022-11-10T03:19:14.711Z,154.65
2022-11-10T03:21:41.462Z,150.20
2022-11-10T03:24:08.274Z,155.57
2022-11-10T03:26:35.000Z,153.65
2022-11-10T03:29:01.847Z,148.30
2022-11-10T03:31:29.121Z,149.52
2022-11-10T03:33:56.036Z,149.40
2022-11-10T03:36:22.807Z,140.65
2022-11-10T03:38:49.760Z,144.40
2022-11-10T03:41:19.838Z,153.43
2022-11-10T03:43:48.430Z,150.85
2022-11-10T03:46:15.611Z,160.48
2022-11-10T03:48:42.459Z,165.65
2022-11-10T03:51:09.511Z,159.82
2022-11-10T03:53:36.305Z,168.05
2022-11-10T03:56:05.621Z,177.43
2022-11-10T03:58:32.864Z,182.68
2022-11-10T04:00:59.927Z,176.07
2022-11-10T04:03:26.997Z,193.98
2022-11-10T04:06:12.632Z,186.43
2022-11-10T04:09:00.348Z,191.93
2022-11-10T04:11:47.529Z,197.43
2022-11-10T04:14:32.877Z,204.50
2022-11-10T04:16:59.867Z,194.52
2022-11-10T04:19:26.855Z,200.80
2022-11-10T04:21:54.067Z,203.02
2022-11-10T04:24:21.605Z,209.35
2022-11-10T04:26:49.445Z,203.98
2022-11-10T04:29:18.647Z,206.55
2022-11-10T04:31:45.946Z,208.40
2022-11-10T04:34:14.816Z,200.70
2022-11-10T04:36:43.376Z,216.55
2022-11-10T04:39:10.749Z,212.18
2022-11-10T04:41:38.063Z,216.73
2022-11-10T04:44:05.613Z,212.52
2022-11-10T04:46:35.603Z,198.32
2022-11-10T04:49:02.996Z,208.68
2022-11-10T04:51:32.976Z,202.38
2022-11-10T04:54:00.041Z,201.40
2022-11-10T04:56:27.770Z,212.68
2022-11-10T04:58:55.531Z,204.65
2022-11-10T05:01:24.865Z,198.48
2022-11-10T05:03:52.851Z,189.07
2022-11-10T05:06:20.113Z,196.93
2022-11-10T05:08:47.715Z,193.77
2022-11-10T05:11:15.142Z,197.75
2022-11-10T05:13:42.759Z,187.80
2022-11-10T05:16:10.015Z,204.98
2022-11-10T05:18:37.962Z,208.75
2022-11-10T05:21:04.913Z,202.73
2022-11-10T05:23:41.944Z,202.95
2022-11-10T05:26:17.420Z,200.40
2022-11-10T05:28:45.687Z,198.45
2022-11-10T05:31:13.300Z,204.25
2022-11-10T05:33:40.320Z,190.00
2022-11-10T05:36:07.897Z,195.25
2022-11-10T05:38:38.878Z,200.38
2022-11-10T05:41:09.150Z,209.98
2022-11-10T05:43:35.905Z,200.50
2022-11-10T05:46:02.809Z,198.98
2022-11-10T05:48:29.614Z,184.65
2022-11-10T05:50:56.345Z,195.68
2022-11-10T05:53:23.633Z,192.48
2022-11-10T05:55:50.830Z,198.57
2022-11-10T05:58:17.665Z,195.60
2022-11-10T06:00:44.479Z,189.95
2022-11-10T06:03:17.552Z,185.25
2022-11-10T06:05:44.793Z,185.18
2022-11-10T06:08:11.866Z,183.80
2022-11-10T06:10:39.503Z,179.90
2022-11-10T06:13:07.365Z,180.70
2022-11-10T06:15:34.339Z,140.00
2022-11-10T06:18:01.755Z,88.15
2022-11-10T06:20:29.199Z,124.70
2022-11-10T06:23:14.614Z,71.82
2022-11-10T06:25:42.147Z,48.60
2022-11-10T06:28:09.736Z,52.85
2022-11-10T06:30:38.014Z,57.97
2022-11-10T06:33:04.933Z,80.53
2022-11-10T06:35:31.725Z,50.75
2022-11-10T06:38:11.409Z,66.82
2022-11-10T06:40:38.218Z,58.20
2022-11-10T06:43:05.341Z,58.45
2022-11-10T06:45:32.993Z,58.25
2022-11-10T06:48:06.448Z,57.85
2022-11-10T06:50:33.660Z,58.20
2022-11-10T06:53:00.880Z,51.50
2022-11-10T06:55:28.841Z,55.78
2022-11-10T06:57:55.902Z,51.97
2022-11-10T07:00:23.192Z,53.53
2022-11-10T07:03:08.185Z,55.55
2022-11-10T07:05:39.474Z,57.30
2022-11-10T07:08:09.034Z,60.58
2022-11-10T07:10:37.933Z,58.60
2022-11-10T07:13:05.536Z,58.58
2022-11-10T07:15:34.252Z,60.13
2022-11-10T07:18:02.995Z,56.65
2022-11-10T07:20:33.372Z,59.53
2022-11-10T07:23:02.279Z,60.53
2022-11-10T07:36:42.635Z,54.00
2022-11-10T07:39:11.832Z,50.38
2022-11-10T07:41:38.714Z,46.10
2022-11-10T07:44:05.973Z,47.25
2022-11-10T07:46:33.783Z,41.28
2022-11-10T07:49:02.162Z,42.15
2022-11-10T07:51:31.379Z,37.55
2022-11-10T07:54:03.112Z,35.33
2022-11-10T07:56:30.058Z,32.20
2022-11-10T08:04:19.421Z,32.30
2022-11-10T08:06:48.556Z,30.88
2022-11-10T08:09:15.687Z,30.92
2022-11-10T08:11:45.290Z,32.58
2022-11-10T08:14:12.432Z,29.45
2022-11-10T08:16:39.458Z,31.27
2022-11-10T08:19:08.639Z,35.17
2022-11-10T08:21:35.722Z,35.53
2022-11-10T08:24:04.798Z,33.45
2022-11-10T08:26:32.561Z,37.17
2022-11-10T08:28:59.381Z,38.85
2022-11-10T08:31:26.460Z,34.63
2022-11-10T08:33:54.670Z,40.47
2022-11-10T08:36:21.711Z,35.47
2022-11-10T08:38:48.604Z,35.53
2022-11-10T08:41:15.993Z,36.80
2022-11-10T08:43:45.912Z,34.03
2022-11-10T08:46:12.890Z,36.08
2022-11-10T08:48:40.044Z,34.72
2022-11-10T08:51:11.211Z,34.35
2022-11-10T08:53:38.147Z,36.40
2022-11-10T08:56:05.288Z,38.33
2022-11-10T08:58:39.195Z,39.50
2022-11-10T09:01:12.645Z,38.90
2022-11-10T09:03:39.750Z,39.80
2022-11-10T09:06:06.657Z,43.90
2022-11-10T09:08:34.987Z,45.92
2022-11-10T09:11:04.467Z,44.30
2022-11-10T09:13:32.073Z,41.40
2022-11-10T09:16:14.920Z,38.33
2022-11-10T09:18:47.069Z,40.47
2022-11-10T09:21:16.304Z,48.47
2022-11-10T09:23:45.602Z,42.88
2022-11-10T09:26:14.946Z,46.65
2022-11-10T09:28:41.757Z,46.58
2022-11-10T09:31:12.209Z,50.70
2022-11-10T09:33:38.995Z,49.58
2022-11-10T09:36:07.064Z,59.47
2022-11-10T09:38:36.465Z,55.08
2022-11-10T09:41:10.053Z,53.33
2022-11-10T09:44:06.695Z,56.00
2022-11-10T09:46:43.816Z,53.67
2022-11-10T09:49:36.826Z,54.03
2022-11-10T09:52:05.164Z,49.03
2022-11-10T09:54:35.254Z,48.00
2022-11-10T09:57:06.259Z,46.28
2022-11-10T09:59:34.626Z,45.03
2022-11-10T10:13:58.026Z,43.08
2022-11-10T10:16:44.300Z,35.33
2022-11-10T10:19:31.052Z,39.30
2022-11-10T10:28:52.131Z,47.28
2022-11-10T10:31:20.415Z,51.25
2022-11-10T10:33:50.843Z,68.45
2022-11-10T10:36:25.322Z,55.30
2022-11-10T10:39:12.975Z,50.88
2022-11-10T10:52:44.453Z,57.38
2022-11-10T10:55:16.353Z,46.65
2022-11-10T11:00:35.305Z,64.05
2022-11-10T11:03:11.740Z,41.72
2022-11-10T11:05:42.965Z,37.65
2022-11-10T11:08:19.106Z,36.47
2022-11-10T11:10:48.741Z,33.45
2022-11-10T11:13:22.175Z,36.25
2022-11-10T11:16:03.346Z,42.30
2022-11-10T11:18:36.861Z,36.75
2022-11-10T11:21:33.597Z,34.83
2022-11-10T11:24:51.354Z,32.75
2022-11-10T11:27:27.520Z,36.08
2022-11-10T11:30:09.616Z,37.15
2022-11-10T11:32:49.326Z,37.75
2022-11-10T11:35:18.997Z,33.72
2022-11-10T11:37:58.372Z,34.55
2022-11-10T11:40:43.660Z,33.03
2022-11-10T11:43:39.265Z,33.42
2022-11-10T11:46:25.523Z,35.28
2022-11-10T11:49:02.698Z,34.80
2022-11-10T11:52:10.542Z,35.50
2022-11-10T11:55:11.111Z,31.48
2022-11-10T11:57:53.036Z,32.10
2022-11-10T12:00:22.926Z,32.25
2022-11-10T12:03:22.226Z,33.50
2022-11-10T12:06:20.047Z,31.80
2022-11-10T12:08:59.607Z,32.72
2022-11-10T12:11:55.237Z,29.38
2022-11-10T12:14:51.572Z,28.55
2022-11-10T12:17:27.603Z,33.35
2022-11-10T12:20:22.841Z,29.80
2022-11-10T12:22:52.621Z,30.55
2022-11-10T12:25:34.326Z,30.27
2022-11-10T12:28:15.942Z,27.80
2022-11-10T12:30:44.734Z,29.83
2022-11-10T12:33:41.747Z,29.33
2022-11-10T12:36:14.413Z,31.80
2022-11-10T12:38:41.157Z,28.05
2022-11-10T12:41:20.845Z,28.45
2022-11-10T12:44:04.099Z,29.48
2022-11-10T12:46:31.180Z,28.85
2022-11-10T12:49:16.611Z,29.25
2022-11-10T12:51:58.582Z,29.67
2022-11-10T13:00:32.593Z,29.88
2022-11-10T13:02:59.992Z,30.58
2022-11-10T13:06:16.469Z,43.05
2022-11-10T13:08:43.947Z,34.22
2022-11-10T13:11:14.088Z,29.45
2022-11-10T13:14:05.193Z,29.08
2022-11-10T13:16:46.989Z,31.73
2022-11-10T13:19:42.174Z,31.70
2022-11-10T13:22:11.821Z,31.40
2022-11-10T13:24:56.773Z,35.22
2022-11-10T13:27:41.743Z,31.92
2022-11-10T13:30:10.015Z,32.70
2022-11-10T13:32:37.544Z,33.60
2022-11-10T13:35:36.575Z,36.30
2022-11-10T13:38:03.713Z,33.67
2022-11-10T13:40:36.905Z,38.45
2022-11-10T13:43:03.747Z,44.40
2022-11-10T13:45:39.858Z,42.58
2022-11-10T13:48:56.555Z,37.42
2022-11-10T13:51:43.940Z,35.95
2022-11-10T13:54:26.495Z,40.13
2022-11-10T13:57:27.387Z,37.83
2022-11-10T13:59:58.348Z,38.78
2022-11-10T14:02:41.391Z,42.23
2022-11-10T14:05:34.748Z,45.35
2022-11-10T14:11:33.869Z,40.67
2022-11-10T14:17:49.016Z,40.33
2022-11-10T14:20:58.261Z,42.22
2022-11-10T14:23:45.625Z,44.97
2022-11-10T14:26:35.850Z,44.05
2022-11-10T14:29:33.797Z,42.42
2022-11-10T14:32:14.653Z,41.28
2022-11-10T14:34:56.260Z,44.35
2022-11-10T14:37:37.934Z,50.17
2022-11-10T14:40:17.274Z,58.08
2022-11-10T14:42:50.464Z,40.70
2022-11-10T14:45:24.268Z,42.65
2022-11-10T14:48:00.913Z,47.10
2022-11-10T14:50:32.919Z,60.97
2022-11-10T14:53:10.856Z,46.88
2022-11-10T14:55:39.607Z,48.95
2022-11-10T14:59:12.999Z,46.70
2022-11-10T15:07:38.667Z,59.80
2022-11-10T15:10:24.062Z,48.38
2022-11-10T15:13:14.888Z,47.22
2022-11-10T15:15:42.010Z,46.28
2022-11-10T15:18:29.895Z,48.55
2022-11-10T15:21:11.202Z,49.58
2022-11-10T15:23:46.417Z,50.70
2022-11-10T15:26:32.996Z,51.25
2022-11-10T15:29:04.002Z,48.97
2022-11-10T15:31:37.410Z,49.33
2022-11-10T15:34:05.635Z,49.03
2022-11-10T15:36:35.836Z,48.08
2022-11-10T15:39:23.553Z,49.13
2022-11-10T15:41:56.934Z,51.20
2022-11-10T15:44:26.148Z,59.88
2022-11-10T15:46:55.367Z,55.50
2022-11-10T15:49:28.060Z,52.45
2022-11-10T15:52:01.883Z,49.85
2022-11-10T15:54:31.376Z,57.35
2022-11-10T15:56:58.402Z,54.00
2022-11-10T15:59:28.215Z,63.03
2022-11-10T16:01:55.273Z,55.95
2022-11-10T16:04:22.315Z,58.80
2022-11-10T16:06:49.209Z,52.88
2022-11-10T16:09:16.129Z,54.25
2022-11-10T16:11:44.653Z,53.42
2022-11-10T16:14:15.584Z,53.72
2022-11-10T16:16:46.974Z,55.25
2022-11-10T16:19:13.991Z,54.08
2022-11-10T16:21:41.160Z,58.75
2022-11-10T16:24:09.970Z,54.60
2022-11-10T16:26:46.415Z,53.55
2022-11-10T16:29:15.530Z,62.35
2022-11-10T16:31:42.344Z,62.55
2022-11-10T16:34:15.234Z,59.72
2022-11-10T16:36:43.109Z,66.97
2022-11-10T16:39:15.625Z,71.40
2022-11-10T16:41:46.483Z,70.15
2022-11-10T16:44:22.737Z,70.78
2022-11-10T16:46:58.585Z,69.57
2022-11-10T16:49:31.888Z,67.22
2022-11-10T16:51:58.902Z,66.10
2022-11-10T16:54:28.001Z,68.57
2022-11-10T16:56:54.852Z,74.00
2022-11-10T16:59:21.714Z,72.00
2022-11-10T17:01:50.467Z,79.15
2022-11-10T17:04:33.515Z,68.70
2022-11-10T17:07:01.012Z,62.75
2022-11-10T17:09:56.801Z,71.85
2022-11-10T17:12:30.719Z,69.72
2022-11-10T17:14:58.510Z,72.10
2022-11-10T17:17:28.206Z,68.10
2022-11-10T17:19:55.687Z,68.30
2022-11-10T17:22:24.588Z,58.50
2022-11-10T17:24:55.991Z,61.10
2022-11-10T17:27:25.428Z,63.50
2022-11-10T17:29:53.426Z,59.50
2022-11-10T17:32:27.916Z,65.13
2022-11-10T17:34:58.903Z,60.60
2022-11-10T17:37:25.733Z,54.33
2022-11-10T17:39:55.313Z,54.35
2022-11-10T17:42:23.735Z,56.20
2022-11-10T17:44:51.221Z,53.83
2022-11-10T17:47:22.693Z,52.90
2022-11-10T17:49:49.642Z,52.00
2022-11-10T17:52:19.401Z,52.92
2022-11-10T17:54:46.494Z,55.50
2022-11-10T17:57:15.680Z,49.65
2022-11-10T17:59:43.044Z,50.40
2022-11-10T18:02:11.718Z,52.28
2022-11-10T18:04:38.551Z,48.58
2022-11-10T18:07:06.968Z,53.95
2022-11-10T18:09:40.397Z,55.20
2022-11-10T18:12:08.421Z,48.92
2022-11-10T18:14:36.579Z,51.30
2022-11-10T18:17:03.653Z,49.80
2022-11-10T18:19:30.612Z,43.08
2022-11-10T18:22:06.064Z,50.05
2022-11-10T18:24:32.848Z,44.38
2022-11-10T18:27:00.896Z,42.58
2022-11-10T18:29:27.727Z,47.28
2022-11-10T18:31:54.485Z,49.55
2022-11-10T18:34:22.232Z,48.78
2022-11-10T18:36:49.317Z,45.60
2022-11-10T18:42:13.215Z,45.35
2022-11-10T18:47:23.489Z,39.57
2022-11-10T18:49:50.318Z,41.42
2022-11-10T18:52:17.459Z,40.90
2022-11-10T18:54:49.084Z,44.78
2022-11-10T18:57:18.086Z,41.42
2022-11-10T18:59:54.099Z,42.33
2022-11-10T19:02:23.734Z,41.22
2022-11-10T19:04:53.600Z,40.78
2022-11-10T19:07:22.687Z,41.35
2022-11-10T19:09:49.702Z,40.63
2022-11-10T19:12:17.049Z,38.78
2022-11-10T19:14:46.857Z,40.20
2022-11-10T19:17:23.416Z,41.00
2022-11-10T19:19:55.972Z,40.22
2022-11-10T19:22:24.100Z,41.03
2022-11-10T19:25:07.515Z,39.25
2022-11-10T19:27:35.957Z,32.30
2022-11-10T19:30:27.333Z,33.80
2022-11-10T19:32:55.758Z,31.38
2022-11-10T19:40:45.594Z,32.90
2022-11-10T19:43:13.590Z,31.20
2022-11-10T19:45:42.249Z,30.08
2022-11-10T19:48:09.498Z,31.17
2022-11-10T19:50:49.404Z,30.17
2022-11-10T19:53:16.564Z,29.38
2022-11-10T19:55:43.438Z,31.30
2022-11-10T19:58:10.265Z,25.38
2022-11-10T20:00:37.953Z,28.92
2022-11-10T20:06:06.472Z,23.73
2022-11-10T20:08:33.731Z,22.92
2022-11-10T20:11:03.911Z,24.38
2022-11-10T20:13:30.902Z,25.67
2022-11-10T20:15:58.238Z,21.48
2022-11-10T20:18:33.902Z,22.23
2022-11-10T20:21:05.068Z,19.52
2022-11-10T20:23:36.480Z,21.70
2022-11-10T20:26:15.754Z,21.42
2022-11-10T20:28:45.057Z,20.65
2022-11-10T20:31:27.307Z,19.10
2022-11-10T20:36:34.248Z,17.95
2022-11-10T20:39:02.168Z,18.13
2022-11-10T20:41:32.270Z,18.42
2022-11-10T20:44:00.698Z,16.63
2022-11-10T20:49:10.552Z,18.27
2022-11-10T20:51:37.517Z,19.02
2022-11-10T20:54:04.370Z,16.23
2022-11-10T20:56:31.285Z,17.45
2022-11-10T20:58:58.333Z,14.45
2022-11-10T21:01:30.333Z,12.65
2022-11-10T21:03:59.875Z,17.50
2022-11-10T21:09:10.288Z,15.98
2022-11-10T21:11:56.388Z,12.90
2022-11-10T21:14:23.321Z,13.05
2022-11-10T21:16:50.409Z,14.60
2022-11-10T21:19:17.883Z,12.13
2022-11-10T21:21:46.256Z,10.70
2022-11-10T21:24:13.815Z,12.45
2022-11-10T21:26:41.341Z,11.90
2022-11-10T21:29:08.869Z,9.55
2022-11-10T21:31:37.140Z,8.88
2022-11-10T21:34:05.240Z,12.15
2022-11-10T21:36:35.159Z,11.77
2022-11-10T21:39:02.167Z,10.52
2022-11-10T21:41:29.073Z,9.35
2022-11-10T21:43:59.801Z,14.50
2022-11-10T21:46:27.825Z,10.63
2022-11-10T21:48:54.715Z,11.18
2022-11-10T21:54:15.756Z,7.45
2022-11-10T21:56:42.617Z,11.07
2022-11-10T21:59:12.007Z,8.57
2022-11-10T22:01:50.381Z,9.68
2022-11-10T22:04:17.957Z,8.88
2022-11-10T22:07:03.657Z,7.25
2022-11-10T22:09:49.931Z,10.95
2022-11-10T22:12:39.657Z,10.95
2022-11-10T22:18:39.504Z,7.85
2022-11-10T22:21:09.978Z,8.65
2022-11-10T22:23:55.471Z,7.18
2022-11-10T22:26:22.336Z,13.05
2022-11-10T22:28:49.437Z,6.63
2022-11-10T22:31:16.459Z,8.90
2022-11-10T22:33:43.455Z,7.05
2022-11-10T22:36:15.546Z,7.45
2022-11-10T22:41:32.417Z,9.23
2022-11-10T22:44:06.570Z,8.50
2022-11-10T22:46:39.901Z,6.95
2022-11-10T22:49:11.575Z,7.75
2022-11-10T22:51:39.516Z,6.78
2022-11-10T22:54:10.179Z,9.25
2022-11-10T22:56:37.072Z,6.38
2022-11-10T22:59:04.582Z,6.80
2022-11-10T23:01:32.288Z,7.68
2022-11-10T23:04:00.553Z,12.10
2022-11-10T23:06:29.261Z,7.25
2022-11-10T23:08:56.671Z,12.88
2022-11-10T23:11:25.464Z,7.70
2022-11-10T23:13:52.449Z,9.18
2022-11-10T23:16:25.852Z,8.13
2022-11-10T23:18:53.788Z,9.13
2022-11-10T23:21:23.151Z,7.50
2022-11-10T23:23:50.981Z,8.60
2022-11-10T23:26:27.273Z,8.68
2022-11-10T23:28:55.561Z,8.85
2022-11-10T23:31:25.085Z,8.93
2022-11-10T23:33:54.252Z,9.57
2022-11-10T23:36:23.269Z,7.68
2022-11-10T23:38:50.111Z,12.00
2022-11-10T23:41:19.926Z,7.53
2022-11-10T23:43:47.460Z,9.27
2022-11-10T23:46:14.946Z,8.38
2022-11-10T23:48:42.615Z,9.27
2022-11-10T23:51:12.822Z,9.98
2022-11-10T23:53:40.366Z,7.68
2022-11-10T23:56:11.295Z,8.32
2022-11-10T23:58:38.253Z,8.88
